Sammamish, Washington
Current Conditions -  °F | °C
As of 7:53 AM on Thursday 30 Oct 2014 (Local Time) from KRNT Reporting Station
Light Rain Light Rain  
Wind Chill: 55°   Ceiling: 10000
Heat Index: 55°   Visibility: 10mi
Dew Point: 52°   Wind: 5mph
Humidity: 89%   Direction: 140°SE
Pressure: 29.86"   Gusts: NA
Location:  47.63°N, 122.03°W
Report Text: KRNT 301453Z 14004KT 10SM -RA SCT080 OVC100 13/11 A2986 RMK AO2 RAB41 SLP116 P0000 60000 T01280111 56021
Loading
Personal Weather Stations






























Interactive Weather Map
Tropical Storm Tracking
New forecast layout! Learn more

10-Day Weather Forecast

Advertisements
Track Severe Weather on mobile